JBU2516 KJFK-KSYR
Flight info
| Callsign | JBU2516 |
|---|---|
| Flight time | 0h 52m |
| Altitude | 24000 |
| Route | DCT NEION Q232 CORDS DCT CFB T335 CORTA DCT |
| Aircraft | A20N/M-VGDW/C |
Departure
| Time | 2026-04-30 18:09 |
|---|---|
| Airport | John F. Kennedy International Airport (KJFK) |
Arrival
| Time | 2026-04-30 19:01 |
|---|---|
| Airport | Syracuse Hancock International Airport (KSYR) |
| Time | Latitude | Longitude | Altitude | Speed | Heading |
|---|---|---|---|---|---|
| 2026-04-30 17:39 | 40.64541 | -73.77289 | 20 ft | 0 kts | 1° |
| 2026-04-30 17:42 | 40.64542 | -73.77289 | 20 ft | 0 kts | 1° |
| 2026-04-30 17:44 | 40.64543 | -73.77289 | 20 ft | 0 kts | 1° |
| 2026-04-30 17:48 | 40.64527 | -73.77289 | 20 ft | 3 kts | 1° |
| 2026-04-30 17:49 | 40.64521 | -73.77290 | 20 ft | 1 kts | 1° |
| 2026-04-30 17:50 | 40.64526 | -73.77289 | 20 ft | 0 kts | 1° |
| 2026-04-30 17:56 | 40.64498 | -73.77290 | 18 ft | 2 kts | 1° |
| 2026-04-30 17:57 | 40.64473 | -73.77307 | 20 ft | 0 kts | 75° |
| 2026-04-30 17:59 | 40.64454 | -73.77199 | 20 ft | 0 kts | 115° |
| 2026-04-30 18:02 | 40.64480 | -73.76999 | 20 ft | 21 kts | 7° |
| 2026-04-30 18:03 | 40.64883 | -73.76698 | 21 ft | 22 kts | 31° |
| 2026-04-30 18:04 | 40.65093 | -73.76462 | 22 ft | 0 kts | 109° |
| 2026-04-30 18:05 | 40.65093 | -73.76460 | 22 ft | 0 kts | 110° |
| 2026-04-30 18:06 | 40.64982 | -73.76383 | 23 ft | 0 kts | 206° |
| 2026-04-30 18:08 | 40.64238 | -73.76966 | 21 ft | 136 kts | 210° |
| 2026-04-30 18:09 | 40.59410 | -73.80751 | 1671 ft | 261 kts | 214° |
| 2026-04-30 18:10 | 40.53267 | -73.85916 | 4989 ft | 308 kts | 214° |
| 2026-04-30 18:11 | 40.46481 | -73.91322 | 5018 ft | 255 kts | 201° |
| 2026-04-30 18:11 | 40.40978 | -73.91527 | 8038 ft | 266 kts | 169° |
| 2026-04-30 18:12 | 40.36177 | -73.87723 | 10686 ft | 303 kts | 123° |
| 2026-04-30 18:13 | 40.35831 | -73.82004 | 11973 ft | 341 kts | 71° |
| 2026-04-30 18:13 | 40.40284 | -73.76233 | 13955 ft | 351 kts | 28° |
| 2026-04-30 18:14 | 40.45157 | -73.72179 | 15702 ft | 361 kts | 28° |
| 2026-04-30 18:15 | 40.51761 | -73.66740 | 17004 ft | 393 kts | 26° |
| 2026-04-30 18:15 | 40.59066 | -73.61405 | 17488 ft | 412 kts | 24° |
| 2026-04-30 18:16 | 40.64118 | -73.57706 | 18495 ft | 420 kts | 31° |
| 2026-04-30 18:16 | 40.68513 | -73.53191 | 21083 ft | 382 kts | 35° |
| 2026-04-30 18:17 | 40.70556 | -73.51071 | 22354 ft | 364 kts | 31° |
| 2026-04-30 18:17 | 40.72697 | -73.49420 | 23246 ft | 354 kts | 18° |
| 2026-04-30 18:17 | 40.77260 | -73.46333 | 23305 ft | 401 kts | 37° |
| 2026-04-30 18:18 | 40.79205 | -73.43497 | 22904 ft | 436 kts | 56° |
| 2026-04-30 18:18 | 40.80519 | -73.39846 | 23276 ft | 438 kts | 72° |
| 2026-04-30 18:18 | 40.81580 | -73.36124 | 24066 ft | 434 kts | 62° |
| 2026-04-30 18:18 | 40.83317 | -73.32766 | 23937 ft | 453 kts | 46° |
| 2026-04-30 18:19 | 40.85652 | -73.29955 | 23903 ft | 454 kts | 32° |
| 2026-04-30 18:19 | 40.88374 | -73.27920 | 23871 ft | 447 kts | 21° |
| 2026-04-30 18:19 | 40.91218 | -73.26287 | 23964 ft | 444 kts | 13° |
| 2026-04-30 18:19 | 40.94208 | -73.25587 | 23987 ft | 432 kts | 354° |
| 2026-04-30 18:20 | 40.97112 | -73.26174 | 23986 ft | 416 kts | 334° |
| 2026-04-30 18:20 | 40.99605 | -73.27936 | 24005 ft | 401 kts | 317° |
| 2026-04-30 18:20 | 41.01823 | -73.30172 | 23987 ft | 401 kts | 315° |
| 2026-04-30 18:20 | 41.04051 | -73.32404 | 23901 ft | 402 kts | 316° |
| 2026-04-30 18:21 | 41.06275 | -73.34641 | 23748 ft | 400 kts | 316° |
| 2026-04-30 18:21 | 41.08463 | -73.36906 | 23591 ft | 399 kts | 315° |
| 2026-04-30 18:21 | 41.10609 | -73.39154 | 23770 ft | 399 kts | 315° |
| 2026-04-30 18:21 | 41.12806 | -73.41429 | 24028 ft | 402 kts | 315° |
| 2026-04-30 18:22 | 41.15025 | -73.43698 | 24136 ft | 405 kts | 316° |
| 2026-04-30 18:22 | 41.19523 | -73.48176 | 23926 ft | 402 kts | 317° |
| 2026-04-30 18:22 | 41.21812 | -73.50337 | 23979 ft | 406 kts | 318° |
| 2026-04-30 18:23 | 41.24144 | -73.52463 | 24024 ft | 407 kts | 319° |
| 2026-04-30 18:23 | 41.26508 | -73.54539 | 24078 ft | 407 kts | 320° |
| 2026-04-30 18:23 | 41.28902 | -73.56565 | 24119 ft | 409 kts | 321° |
| 2026-04-30 18:23 | 41.31330 | -73.58545 | 24168 ft | 410 kts | 322° |
| 2026-04-30 18:24 | 41.36236 | -73.62419 | 23973 ft | 409 kts | 322° |
| 2026-04-30 18:24 | 41.38691 | -73.64353 | 23961 ft | 411 kts | 322° |
| 2026-04-30 18:24 | 41.41149 | -73.66292 | 23949 ft | 411 kts | 322° |
| 2026-04-30 18:25 | 41.43606 | -73.68230 | 23951 ft | 411 kts | 322° |
| 2026-04-30 18:25 | 41.48309 | -73.72426 | 23912 ft | 399 kts | 308° |
| 2026-04-30 18:25 | 41.50029 | -73.75258 | 23909 ft | 388 kts | 295° |
| 2026-04-30 18:26 | 41.51984 | -73.81804 | 23715 ft | 378 kts | 282° |
| 2026-04-30 18:26 | 41.52458 | -73.85181 | 23665 ft | 367 kts | 268° |
| 2026-04-30 18:26 | 41.52299 | -73.88554 | 23897 ft | 364 kts | 257° |
| 2026-04-30 18:27 | 41.50979 | -73.95066 | 24027 ft | 365 kts | 254° |
| 2026-04-30 18:27 | 41.50614 | -73.98413 | 23753 ft | 368 kts | 266° |
| 2026-04-30 18:28 | 41.50939 | -74.05171 | 23638 ft | 367 kts | 270° |
| 2026-04-30 18:28 | 41.51146 | -74.08535 | 23308 ft | 369 kts | 270° |
| 2026-04-30 18:28 | 41.51568 | -74.15021 | 24471 ft | 331 kts | 270° |
| 2026-04-30 18:29 | 41.51775 | -74.18050 | 24995 ft | 327 kts | 270° |
| 2026-04-30 18:29 | 41.52394 | -74.27175 | 24173 ft | 344 kts | 270° |
| 2026-04-30 18:30 | 41.52870 | -74.32753 | 23969 ft | 369 kts | 271° |
| 2026-04-30 18:30 | 41.53382 | -74.40642 | 23963 ft | 367 kts | 270° |
| 2026-04-30 18:31 | 41.53596 | -74.44035 | 23956 ft | 367 kts | 270° |
| 2026-04-30 18:31 | 41.54022 | -74.50821 | 23896 ft | 366 kts | 270° |
| 2026-04-30 18:32 | 41.54448 | -74.57574 | 23756 ft | 365 kts | 270° |
| 2026-04-30 18:32 | 41.54662 | -74.60948 | 23695 ft | 365 kts | 270° |
| 2026-04-30 18:32 | 41.55095 | -74.67718 | 23563 ft | 367 kts | 270° |
| 2026-04-30 18:33 | 41.55314 | -74.71085 | 23600 ft | 363 kts | 270° |
| 2026-04-30 18:33 | 41.55744 | -74.78062 | 23752 ft | 392 kts | 270° |
| 2026-04-30 18:33 | 41.55959 | -74.81722 | 23817 ft | 396 kts | 270° |
| 2026-04-30 18:34 | 41.56174 | -74.85376 | 23849 ft | 395 kts | 271° |
| 2026-04-30 18:34 | 41.56605 | -74.92683 | 23851 ft | 395 kts | 271° |
| 2026-04-30 18:34 | 41.56860 | -74.96335 | 23845 ft | 396 kts | 274° |
| 2026-04-30 18:35 | 41.57549 | -74.99925 | 23851 ft | 405 kts | 287° |
| 2026-04-30 18:35 | 41.58897 | -75.03263 | 23855 ft | 414 kts | 298° |
| 2026-04-30 18:35 | 41.60534 | -75.06434 | 23850 ft | 414 kts | 298° |
| 2026-04-30 18:36 | 41.63819 | -75.12754 | 23845 ft | 414 kts | 299° |
| 2026-04-30 18:36 | 41.65460 | -75.15919 | 23851 ft | 414 kts | 299° |
| 2026-04-30 18:36 | 41.68739 | -75.22255 | 23850 ft | 414 kts | 299° |
| 2026-04-30 18:37 | 41.70379 | -75.25429 | 23782 ft | 415 kts | 299° |
| 2026-04-30 18:37 | 41.72001 | -75.28570 | 23559 ft | 405 kts | 299° |
| 2026-04-30 18:37 | 41.72339 | -75.29223 | 23511 ft | 403 kts | 299° |
| 2026-04-30 18:38 | 41.73893 | -75.32233 | 23270 ft | 408 kts | 299° |
| 2026-04-30 18:38 | 41.75508 | -75.35379 | 22993 ft | 409 kts | 299° |
| 2026-04-30 18:39 | 41.77109 | -75.38507 | 22723 ft | 406 kts | 299° |
| 2026-04-30 18:39 | 41.78700 | -75.41624 | 22357 ft | 405 kts | 299° |
| 2026-04-30 18:39 | 41.80284 | -75.44736 | 21969 ft | 403 kts | 299° |
| 2026-04-30 18:39 | 41.81851 | -75.47830 | 21581 ft | 400 kts | 299° |
| 2026-04-30 18:40 | 41.83407 | -75.50912 | 21195 ft | 398 kts | 299° |
| 2026-04-30 18:40 | 41.84950 | -75.53981 | 20881 ft | 396 kts | 299° |
| 2026-04-30 18:40 | 41.86484 | -75.57040 | 20389 ft | 396 kts | 299° |
| 2026-04-30 18:40 | 41.88021 | -75.60128 | 19450 ft | 401 kts | 299° |
| 2026-04-30 18:41 | 41.89576 | -75.63286 | 18355 ft | 409 kts | 299° |
| 2026-04-30 18:41 | 41.90607 | -75.65399 | 17817 ft | 407 kts | 299° |
| 2026-04-30 18:41 | 41.92209 | -75.68483 | 17303 ft | 398 kts | 303° |
| 2026-04-30 18:41 | 41.93878 | -75.71355 | 17035 ft | 382 kts | 304° |
| 2026-04-30 18:42 | 41.95459 | -75.74109 | 16899 ft | 363 kts | 303° |
| 2026-04-30 18:42 | 41.98327 | -75.79427 | 16873 ft | 352 kts | 301° |
| 2026-04-30 18:42 | 41.99725 | -75.82137 | 16867 ft | 352 kts | 300° |
| 2026-04-30 18:45 | 42.13457 | -76.09123 | 15150 ft | 342 kts | 302° |
| 2026-04-30 18:45 | 42.15098 | -76.11448 | 14589 ft | 346 kts | 320° |
| 2026-04-30 18:45 | 42.17259 | -76.12893 | 14054 ft | 351 kts | 340° |
| 2026-04-30 18:46 | 42.19695 | -76.13225 | 13537 ft | 355 kts | 0° |
| 2026-04-30 18:46 | 42.22148 | -76.12945 | 13003 ft | 352 kts | 1° |
| 2026-04-30 18:46 | 42.24578 | -76.12652 | 12474 ft | 349 kts | 2° |
| 2026-04-30 18:46 | 42.26985 | -76.12363 | 11937 ft | 346 kts | 2° |
| 2026-04-30 18:47 | 42.29371 | -76.12080 | 11427 ft | 343 kts | 2° |
| 2026-04-30 18:47 | 42.31724 | -76.11803 | 11111 ft | 337 kts | 2° |
| 2026-04-30 18:47 | 42.34074 | -76.11530 | 10998 ft | 341 kts | 2° |
| 2026-04-30 18:47 | 42.36438 | -76.11255 | 10981 ft | 340 kts | 2° |
| 2026-04-30 18:48 | 42.38798 | -76.10981 | 10977 ft | 341 kts | 2° |
| 2026-04-30 18:48 | 42.41160 | -76.10707 | 10990 ft | 341 kts | 2° |
| 2026-04-30 18:48 | 42.43522 | -76.10432 | 10986 ft | 341 kts | 2° |
| 2026-04-30 18:48 | 42.45882 | -76.10157 | 10980 ft | 340 kts | 2° |
| 2026-04-30 18:49 | 42.48241 | -76.09882 | 10978 ft | 339 kts | 2° |
| 2026-04-30 18:49 | 42.50586 | -76.09607 | 10726 ft | 337 kts | 2° |
| 2026-04-30 18:49 | 42.52912 | -76.09335 | 10298 ft | 335 kts | 2° |
| 2026-04-30 18:49 | 42.55221 | -76.09065 | 9726 ft | 330 kts | 2° |
| 2026-04-30 18:50 | 42.57499 | -76.08798 | 8950 ft | 327 kts | 2° |
| 2026-04-30 18:50 | 42.59737 | -76.08536 | 8393 ft | 319 kts | 2° |
| 2026-04-30 18:50 | 42.61945 | -76.08277 | 8015 ft | 313 kts | 2° |
| 2026-04-30 18:50 | 42.64073 | -76.08024 | 7659 ft | 300 kts | 2° |
| 2026-04-30 18:51 | 42.66109 | -76.07781 | 7256 ft | 289 kts | 3° |
| 2026-04-30 18:51 | 42.68072 | -76.07272 | 6729 ft | 286 kts | 14° |
| 2026-04-30 18:51 | 42.69931 | -76.06381 | 6204 ft | 281 kts | 17° |
| 2026-04-30 18:51 | 42.71749 | -76.05484 | 5655 ft | 275 kts | 17° |
| 2026-04-30 18:52 | 42.73510 | -76.04613 | 5336 ft | 262 kts | 17° |
| 2026-04-30 18:52 | 42.75169 | -76.03788 | 5337 ft | 253 kts | 16° |
| 2026-04-30 18:52 | 42.76855 | -76.02959 | 5481 ft | 257 kts | 17° |
| 2026-04-30 18:52 | 42.78525 | -76.02133 | 5605 ft | 255 kts | 17° |
| 2026-04-30 18:53 | 42.80199 | -76.01301 | 5748 ft | 256 kts | 17° |
| 2026-04-30 18:53 | 42.81855 | -76.00476 | 5675 ft | 250 kts | 16° |
| 2026-04-30 18:53 | 42.83467 | -75.99673 | 5461 ft | 244 kts | 16° |
| 2026-04-30 18:53 | 42.85037 | -75.98891 | 5189 ft | 235 kts | 16° |
| 2026-04-30 18:54 | 42.86546 | -75.98141 | 4930 ft | 226 kts | 16° |
| 2026-04-30 18:54 | 42.87999 | -75.97420 | 4647 ft | 220 kts | 15° |
| 2026-04-30 18:54 | 42.89443 | -75.96705 | 4379 ft | 222 kts | 15° |
| 2026-04-30 18:54 | 42.90891 | -75.95990 | 4120 ft | 220 kts | 16° |
| 2026-04-30 18:55 | 42.92894 | -75.94990 | 3766 ft | 221 kts | 16° |
| 2026-04-30 18:55 | 42.98566 | -75.92152 | 3329 ft | 219 kts | 15° |
| 2026-04-30 18:55 | 43.01434 | -75.90718 | 3273 ft | 218 kts | 15° |
| 2026-04-30 18:56 | 43.07124 | -75.87873 | 2718 ft | 215 kts | 16° |
| 2026-04-30 18:56 | 43.09957 | -75.87383 | 2719 ft | 204 kts | 329° |
| 2026-04-30 18:56 | 43.11243 | -75.89614 | 2593 ft | 200 kts | 286° |
| 2026-04-30 18:57 | 43.11444 | -75.93200 | 2367 ft | 177 kts | 270° |
| 2026-04-30 18:57 | 43.11391 | -75.94830 | 2166 ft | 169 kts | 268° |
| 2026-04-30 18:57 | 43.11299 | -75.96351 | 2196 ft | 150 kts | 267° |
| 2026-04-30 18:58 | 43.11252 | -75.98947 | 2063 ft | 135 kts | 269° |
| 2026-04-30 18:58 | 43.11206 | -76.00230 | 1941 ft | 131 kts | 268° |
| 2026-04-30 18:58 | 43.11169 | -76.01425 | 1735 ft | 123 kts | 271° |
| 2026-04-30 18:59 | 43.11085 | -76.03892 | 1234 ft | 135 kts | 271° |
| 2026-04-30 19:00 | 43.10983 | -76.07651 | 693 ft | 130 kts | 269° |
| 2026-04-30 19:00 | 43.10947 | -76.08871 | 502 ft | 125 kts | 268° |
| 2026-04-30 19:00 | 43.10880 | -76.10811 | 416 ft | 54 kts | 266° |
| 2026-04-30 19:01 | 43.11029 | -76.11138 | 420 ft | 12 kts | 347° |
| 2026-04-30 19:01 | 43.11141 | -76.11147 | 417 ft | 19 kts | 359° |
| 2026-04-30 19:02 | 43.11209 | -76.11153 | 419 ft | 0 kts | 29° |